createdAt,value
2023-11-07T00:02:16.952Z,6.00
2023-11-07T00:04:43.360Z,6.00
2023-11-07T00:07:09.758Z,5.67
2023-11-07T00:09:36.197Z,5.67
2023-11-07T00:12:02.607Z,5.00
2023-11-07T00:14:29.059Z,5.00
2023-11-07T00:16:55.469Z,4.67
2023-11-07T00:19:21.946Z,5.00
2023-11-07T00:21:48.376Z,4.67
2023-11-07T00:24:14.805Z,5.00
2023-11-07T00:26:41.247Z,4.00
2023-11-07T00:29:07.739Z,4.00
2023-11-07T00:31:34.145Z,1.00
2023-11-07T00:34:01.531Z,3.75
2023-11-07T00:36:28.049Z,3.67
2023-11-07T00:38:54.534Z,4.00
2023-11-07T00:41:20.937Z,4.33
2023-11-07T00:43:47.332Z,4.00
2023-11-07T00:46:13.753Z,2.00
2023-11-07T00:48:40.254Z,3.00
2023-11-07T00:51:06.849Z,4.00
2023-11-07T00:53:33.325Z,3.00
2023-11-07T00:55:59.729Z,5.00
2023-11-07T00:58:26.146Z,4.00
2023-11-07T01:00:52.566Z,3.00
2023-11-07T01:03:19.069Z,3.33
2023-11-07T01:05:45.652Z,4.00
2023-11-07T01:08:12.177Z,4.00
2023-11-07T01:10:38.598Z,4.00
2023-11-07T01:13:05.014Z,3.00
2023-11-07T01:15:31.441Z,3.00
2023-11-07T01:17:57.972Z,5.00
2023-11-07T01:20:24.498Z,2.00
2023-11-07T01:22:50.930Z,4.00
2023-11-07T01:25:18.239Z,2.75
2023-11-07T01:27:44.710Z,3.00
2023-11-07T01:30:11.165Z,2.67
2023-11-07T01:32:37.794Z,2.00
2023-11-07T01:35:04.386Z,3.00
2023-11-07T01:37:30.792Z,4.00
2023-11-07T01:39:57.212Z,3.33
2023-11-07T01:42:23.620Z,3.00
2023-11-07T01:44:50.098Z,3.00
2023-11-07T01:47:16.514Z,3.00
2023-11-07T01:49:42.910Z,3.67
2023-11-07T01:52:09.373Z,4.00
2023-11-07T01:54:35.797Z,3.00
2023-11-07T01:57:02.244Z,3.00
2023-11-07T01:59:28.693Z,3.00
2023-11-07T02:01:55.122Z,3.00
2023-11-07T02:04:21.670Z,3.00
2023-11-07T02:06:48.171Z,4.00
2023-11-07T02:09:14.592Z,4.00
2023-11-07T02:11:41.043Z,3.00
2023-11-07T02:14:07.703Z,3.33
2023-11-07T02:16:34.164Z,3.00
2023-11-07T02:19:00.768Z,3.00
2023-11-07T02:21:27.268Z,3.00
2023-11-07T02:23:53.743Z,2.33
2023-11-07T02:26:21.082Z,3.00
2023-11-07T02:28:47.492Z,3.00
2023-11-07T02:31:13.908Z,3.00
2023-11-07T02:33:40.467Z,2.33
2023-11-07T02:36:07.001Z,3.67
2023-11-07T02:38:33.507Z,3.00
2023-11-07T02:40:59.951Z,3.00
2023-11-07T02:43:26.360Z,2.00
2023-11-07T02:45:52.755Z,3.33
2023-11-07T02:48:19.347Z,3.00
2023-11-07T02:50:46.037Z,4.00
2023-11-07T02:53:12.563Z,1.67
2023-11-07T02:55:39.205Z,3.00
2023-11-07T02:58:05.677Z,3.00
2023-11-07T03:00:32.096Z,3.00
2023-11-07T03:02:58.576Z,3.00
2023-11-07T03:05:25.011Z,3.00
2023-11-07T03:07:51.506Z,2.00
2023-11-07T03:10:17.953Z,3.67
2023-11-07T03:12:44.375Z,2.67
2023-11-07T03:15:10.822Z,3.00
2023-11-07T03:17:37.435Z,3.00
2023-11-07T03:20:03.901Z,3.00
2023-11-07T03:22:30.347Z,4.00
2023-11-07T03:24:56.814Z,4.00
2023-11-07T03:27:23.241Z,3.00
2023-11-07T03:29:49.684Z,3.00
2023-11-07T03:32:16.105Z,3.00
2023-11-07T03:34:42.513Z,3.67
2023-11-07T03:37:08.952Z,2.00
2023-11-07T03:39:35.400Z,3.00
2023-11-07T03:42:01.850Z,3.33
2023-11-07T03:44:28.314Z,2.00
2023-11-07T03:46:54.728Z,3.67
2023-11-07T03:49:21.238Z,3.00
2023-11-07T03:51:47.699Z,4.33
2023-11-07T03:54:14.163Z,2.33
2023-11-07T03:56:40.607Z,2.00
2023-11-07T03:59:07.064Z,3.67
2023-11-07T04:01:33.607Z,4.00
2023-11-07T04:04:00.135Z,4.00
2023-11-07T04:06:26.622Z,3.00
2023-11-07T04:08:53.127Z,3.00
2023-11-07T04:11:19.549Z,2.00
2023-11-07T04:13:45.985Z,2.67
2023-11-07T04:16:13.257Z,3.00
2023-11-07T04:18:39.778Z,3.33
2023-11-07T04:21:06.305Z,4.00
2023-11-07T04:23:32.804Z,3.00
2023-11-07T04:25:59.300Z,3.00
2023-11-07T04:28:25.742Z,3.00
2023-11-07T04:30:52.220Z,2.67
2023-11-07T04:33:19.100Z,3.00
2023-11-07T04:35:45.615Z,3.67
2023-11-07T04:38:12.089Z,3.00
2023-11-07T04:40:38.473Z,3.00
2023-11-07T04:43:05.003Z,2.00
2023-11-07T04:45:31.502Z,3.00
2023-11-07T04:47:58.061Z,3.00
2023-11-07T04:50:24.561Z,3.00
2023-11-07T04:52:50.969Z,3.00
2023-11-07T04:55:17.427Z,3.00
2023-11-07T04:57:43.827Z,2.33
2023-11-07T05:00:10.267Z,3.00
2023-11-07T05:02:36.791Z,3.00
2023-11-07T05:05:06.038Z,2.83
2023-11-07T05:07:32.459Z,3.00
2023-11-07T05:09:58.826Z,2.00
2023-11-07T05:12:25.271Z,2.00
2023-11-07T05:14:51.717Z,2.00
2023-11-07T05:17:18.159Z,3.00
2023-11-07T05:19:44.657Z,2.33
2023-11-07T05:22:11.093Z,3.67
2023-11-07T05:24:37.485Z,1.33
2023-11-07T05:27:03.929Z,1.67
2023-11-07T05:29:30.321Z,2.33
2023-11-07T05:31:56.713Z,3.00
2023-11-07T05:34:23.173Z,2.00
2023-11-07T05:36:49.590Z,5.00
2023-11-07T05:39:17.115Z,17.00
2023-11-07T05:41:43.654Z,10.00
2023-11-07T05:44:10.997Z,7.00
2023-11-07T05:46:37.442Z,5.00
2023-11-07T05:49:04.032Z,4.33
2023-11-07T05:51:30.626Z,10.00
2023-11-07T05:53:58.204Z,13.00
2023-11-07T05:56:24.689Z,8.00
2023-11-07T05:58:51.116Z,6.00
2023-11-07T06:01:18.437Z,5.75
2023-11-07T06:03:44.944Z,5.67
2023-11-07T06:06:11.686Z,4.67
2023-11-07T06:08:38.305Z,7.00
2023-11-07T06:11:04.797Z,5.33
2023-11-07T06:13:31.242Z,6.67
2023-11-07T06:15:57.647Z,5.00
2023-11-07T06:18:24.169Z,7.00
2023-11-07T06:20:50.802Z,10.50
2023-11-07T06:23:18.310Z,15.67
2023-11-07T06:25:45.620Z,10.00
2023-11-07T06:28:13.978Z,7.80
2023-11-07T06:30:41.301Z,6.50
2023-11-07T06:33:08.854Z,7.25
2023-11-07T06:35:35.353Z,6.67
2023-11-07T06:38:03.741Z,8.60
2023-11-07T06:40:32.134Z,8.60
2023-11-07T06:42:58.648Z,10.00
2023-11-07T06:45:26.100Z,14.00
2023-11-07T06:47:52.799Z,10.50
2023-11-07T06:50:19.472Z,11.00
2023-11-07T06:52:47.862Z,9.80
2023-11-07T06:55:15.527Z,11.00
2023-11-07T06:57:42.125Z,10.00
2023-11-07T07:00:09.474Z,11.00
2023-11-07T07:02:38.085Z,11.60
2023-11-07T07:05:06.575Z,11.00
2023-11-07T07:07:33.156Z,18.00
2023-11-07T07:09:59.711Z,14.00
2023-11-07T07:12:27.132Z,12.00
2023-11-07T07:14:53.814Z,10.00
2023-11-07T07:17:20.353Z,10.00
2023-11-07T07:19:46.847Z,8.67
2023-11-07T07:22:13.326Z,8.00
2023-11-07T07:24:39.873Z,16.00
2023-11-07T07:27:06.776Z,31.00
2023-11-07T07:29:33.436Z,29.50
2023-11-07T07:32:00.203Z,34.00
2023-11-07T07:34:27.036Z,33.00
2023-11-07T07:36:54.883Z,32.33
2023-11-07T07:39:21.766Z,31.00
2023-11-07T07:41:48.736Z,33.00
2023-11-07T07:44:16.500Z,31.00
2023-11-07T07:46:43.314Z,30.50
2023-11-07T07:49:10.218Z,26.50
2023-11-07T07:51:37.092Z,31.00
2023-11-07T07:54:03.993Z,28.50
2023-11-07T07:56:30.977Z,27.00
2023-11-07T07:58:58.592Z,25.33
2023-11-07T08:01:26.080Z,24.00
2023-11-07T08:03:53.654Z,25.33
2023-11-07T08:06:20.334Z,29.00
2023-11-07T08:08:47.897Z,26.00
2023-11-07T08:11:14.469Z,24.00
2023-11-07T08:13:41.065Z,22.50
2023-11-07T08:16:11.043Z,22.00
2023-11-07T08:18:39.167Z,20.00
2023-11-07T08:21:06.708Z,22.50
2023-11-07T08:23:34.249Z,25.00
2023-11-07T08:26:00.786Z,22.00
2023-11-07T08:28:28.261Z,22.00
2023-11-07T08:30:54.795Z,18.50
2023-11-07T08:33:22.313Z,17.50
2023-11-07T08:35:49.868Z,25.33
2023-11-07T08:38:17.366Z,23.00
2023-11-07T08:40:44.853Z,19.50
2023-11-07T08:43:12.318Z,17.00
2023-11-07T08:45:38.854Z,17.00
2023-11-07T08:48:05.525Z,13.00
2023-11-07T08:50:32.985Z,13.00
2023-11-07T08:52:59.502Z,14.50
2023-11-07T08:55:27.532Z,22.33
2023-11-07T08:57:54.275Z,20.00
2023-11-07T09:00:21.766Z,15.00
2023-11-07T09:02:49.361Z,13.33
2023-11-07T09:05:16.049Z,15.50
2023-11-07T09:07:42.826Z,13.00
2023-11-07T09:10:09.401Z,14.00
2023-11-07T09:12:36.814Z,13.33
2023-11-07T09:15:03.374Z,11.50
2023-11-07T09:17:31.714Z,12.00
2023-11-07T09:19:59.913Z,12.33
2023-11-07T09:22:26.481Z,19.00
2023-11-07T09:24:53.928Z,19.50
2023-11-07T09:27:20.462Z,17.00
2023-11-07T09:29:47.875Z,10.33
2023-11-07T09:32:15.223Z,11.33
2023-11-07T09:34:41.889Z,10.00
2023-11-07T09:37:08.547Z,9.00
2023-11-07T09:39:35.134Z,7.50
2023-11-07T09:42:02.478Z,6.75
2023-11-07T09:44:28.977Z,5.67
2023-11-07T09:46:55.468Z,4.33
2023-11-07T09:49:21.920Z,5.00
2023-11-07T09:51:48.326Z,6.00
2023-11-07T09:54:18.358Z,5.75
2023-11-07T09:56:44.932Z,5.33
2023-11-07T09:59:12.290Z,4.50
2023-11-07T10:01:38.768Z,4.00
2023-11-07T10:04:05.733Z,4.00
2023-11-07T10:06:32.293Z,4.00
2023-11-07T10:08:58.751Z,4.00
2023-11-07T10:11:25.191Z,3.00
2023-11-07T10:13:51.685Z,3.00
2023-11-07T10:16:19.457Z,3.00
2023-11-07T10:18:46.055Z,3.67
2023-11-07T10:21:12.531Z,3.00
2023-11-07T10:23:38.972Z,3.00
2023-11-07T10:26:05.402Z,3.33
2023-11-07T10:28:31.804Z,2.00
2023-11-07T10:30:58.194Z,3.00
2023-11-07T10:33:24.697Z,3.67
2023-11-07T10:35:51.294Z,3.00
2023-11-07T10:38:20.542Z,2.00
2023-11-07T10:40:47.015Z,3.00
2023-11-07T10:43:13.409Z,3.00
2023-11-07T10:45:39.796Z,4.00
2023-11-07T10:48:06.316Z,3.00
2023-11-07T10:50:32.787Z,4.00
2023-11-07T10:52:59.216Z,3.00
2023-11-07T10:55:25.645Z,3.00
2023-11-07T10:57:51.998Z,2.00
2023-11-07T11:00:18.415Z,2.00
2023-11-07T11:02:44.983Z,2.33
2023-11-07T11:05:11.499Z,3.00
2023-11-07T11:07:37.917Z,3.00
2023-11-07T11:10:04.384Z,2.33
2023-11-07T11:12:30.795Z,2.00
2023-11-07T11:14:57.232Z,2.00
2023-11-07T11:17:23.711Z,2.67
2023-11-07T11:19:53.052Z,2.00
2023-11-07T11:22:19.534Z,3.00
2023-11-07T11:24:46.009Z,2.67
2023-11-07T11:27:15.064Z,4.00
2023-11-07T11:29:41.657Z,3.00
2023-11-07T11:32:08.090Z,3.00
2023-11-07T11:34:37.343Z,0.00
2023-11-07T11:37:03.821Z,3.00
2023-11-07T11:39:30.305Z,3.00
2023-11-07T11:41:56.903Z,2.00
2023-11-07T11:44:23.327Z,3.00
2023-11-07T11:46:49.806Z,3.33
2023-11-07T11:49:16.472Z,2.00
2023-11-07T11:51:42.943Z,2.00
2023-11-07T11:54:09.539Z,2.00
2023-11-07T11:56:36.075Z,2.33
2023-11-07T11:59:02.492Z,2.00
2023-11-07T12:01:28.917Z,2.33
2023-11-07T12:03:55.480Z,3.00
2023-11-07T12:06:22.423Z,2.67
2023-11-07T12:08:48.965Z,3.00
2023-11-07T12:11:15.536Z,3.00
2023-11-07T12:13:41.955Z,2.00
2023-11-07T12:16:08.349Z,2.00
2023-11-07T12:18:34.912Z,3.00
2023-11-07T12:21:01.471Z,2.33
2023-11-07T12:23:27.925Z,1.33
2023-11-07T12:25:54.403Z,3.33
2023-11-07T12:28:20.906Z,3.00
2023-11-07T12:30:47.330Z,2.00
2023-11-07T12:33:13.851Z,3.00
2023-11-07T12:35:40.409Z,2.00
2023-11-07T12:38:06.961Z,2.00
2023-11-07T12:40:33.634Z,2.00
2023-11-07T12:43:00.052Z,3.00
2023-11-07T12:45:26.468Z,3.00
2023-11-07T12:47:53.074Z,3.00
2023-11-07T12:50:19.529Z,3.00
2023-11-07T12:52:45.972Z,2.00
2023-11-07T12:55:13.281Z,2.50
2023-11-07T12:57:39.724Z,2.00
2023-11-07T13:00:06.177Z,3.00
2023-11-07T13:02:32.701Z,3.00
2023-11-07T13:04:59.168Z,4.67
2023-11-07T13:07:25.606Z,2.00
2023-11-07T13:09:52.064Z,3.33
2023-11-07T13:12:18.545Z,3.67
2023-11-07T13:14:44.966Z,2.00
2023-11-07T13:17:11.425Z,3.33
2023-11-07T13:19:37.912Z,2.00
2023-11-07T13:22:04.431Z,2.67
2023-11-07T13:24:30.905Z,2.33
2023-11-07T13:26:57.381Z,2.67
2023-11-07T13:29:23.827Z,4.00
2023-11-07T13:31:50.296Z,3.00
2023-11-07T13:34:16.942Z,4.00
2023-11-07T13:36:43.421Z,2.00
2023-11-07T13:39:09.945Z,3.00
2023-11-07T13:41:36.531Z,2.00
2023-11-07T13:44:02.949Z,2.33
2023-11-07T13:46:29.389Z,3.00
2023-11-07T13:48:56.208Z,2.00
2023-11-07T13:51:22.816Z,3.33
2023-11-07T13:53:49.311Z,3.00
2023-11-07T13:56:16.608Z,2.25
2023-11-07T13:58:43.019Z,3.00
2023-11-07T14:01:09.552Z,3.00
2023-11-07T14:03:36.139Z,3.00
2023-11-07T14:06:02.764Z,3.33
2023-11-07T14:08:29.252Z,2.00
2023-11-07T14:10:55.689Z,2.33
2023-11-07T14:13:22.121Z,2.00
2023-11-07T14:15:48.540Z,1.00
2023-11-07T14:18:20.118Z,20.50
2023-11-07T14:20:53.120Z,15.00
2023-11-07T14:23:21.594Z,9.40
2023-11-07T14:25:48.200Z,20.00
2023-11-07T14:28:15.708Z,20.00
2023-11-07T14:30:43.122Z,12.00
2023-11-07T14:33:10.617Z,9.33
2023-11-07T14:35:37.200Z,21.50
2023-11-07T14:38:03.810Z,32.00
2023-11-07T14:40:30.421Z,16.00
2023-11-07T14:42:57.041Z,20.00
2023-11-07T14:45:23.608Z,23.00
2023-11-07T14:47:51.282Z,15.00
2023-11-07T14:50:18.715Z,9.33
2023-11-07T14:52:45.316Z,9.50
2023-11-07T14:55:12.704Z,8.25
2023-11-07T14:57:39.161Z,7.00
2023-11-07T15:00:05.634Z,6.67
2023-11-07T15:02:32.226Z,24.00
2023-11-07T15:04:58.807Z,24.00
2023-11-07T15:07:25.310Z,14.50
2023-11-07T15:09:52.646Z,10.00
2023-11-07T15:12:19.248Z,7.00
2023-11-07T15:14:45.768Z,6.33
2023-11-07T15:17:13.085Z,6.00
2023-11-07T15:19:39.512Z,6.00
2023-11-07T15:22:05.964Z,6.00
2023-11-07T15:24:32.386Z,6.00
2023-11-07T15:26:59.020Z,6.00
2023-11-07T15:29:25.478Z,5.67
2023-11-07T15:31:51.901Z,5.67
2023-11-07T15:34:18.431Z,4.33
2023-11-07T15:36:44.862Z,5.00
2023-11-07T15:39:11.336Z,4.00
2023-11-07T15:41:37.778Z,4.33
2023-11-07T15:44:04.214Z,5.67
2023-11-07T15:46:30.628Z,4.33
2023-11-07T15:48:57.139Z,4.67
2023-11-07T15:51:25.710Z,4.00
2023-11-07T15:53:53.713Z,4.00
2023-11-07T15:56:20.175Z,4.67
2023-11-07T15:58:46.620Z,4.00
2023-11-07T16:01:13.029Z,4.33
2023-11-07T16:03:39.589Z,4.00
2023-11-07T16:06:06.140Z,4.00
2023-11-07T16:08:32.624Z,4.00
2023-11-07T16:10:59.055Z,4.67
2023-11-07T16:13:25.487Z,4.00
2023-11-07T16:15:51.891Z,4.00
2023-11-07T16:18:19.312Z,3.00
2023-11-07T16:20:45.825Z,4.00
2023-11-07T16:23:12.300Z,3.00
2023-11-07T16:25:38.723Z,4.67
2023-11-07T16:28:06.481Z,4.00
2023-11-07T16:30:33.202Z,3.00
2023-11-07T16:32:59.703Z,4.00
2023-11-07T16:35:26.253Z,3.00
2023-11-07T16:37:52.815Z,3.67
2023-11-07T16:40:19.301Z,4.00
2023-11-07T16:42:45.719Z,3.00
2023-11-07T16:45:15.148Z,4.33
2023-11-07T16:47:43.082Z,3.00
2023-11-07T16:50:10.673Z,4.00
2023-11-07T16:52:37.104Z,4.00
2023-11-07T16:55:03.548Z,4.00
2023-11-07T16:57:30.068Z,3.67
2023-11-07T16:59:56.555Z,5.33
2023-11-07T17:02:24.054Z,19.00
2023-11-07T17:04:52.558Z,10.20
2023-11-07T17:07:19.386Z,7.00
2023-11-07T17:09:45.821Z,6.00
2023-11-07T17:12:13.351Z,20.00
2023-11-07T17:14:40.748Z,14.00
2023-11-07T17:17:08.153Z,9.33
2023-11-07T17:19:34.596Z,7.33
2023-11-07T17:22:01.064Z,6.33
2023-11-07T17:24:27.938Z,6.00
2023-11-07T17:26:54.396Z,6.00
2023-11-07T17:29:21.138Z,6.67
2023-11-07T17:31:47.680Z,22.00
2023-11-07T17:34:14.368Z,17.00
2023-11-07T17:36:44.342Z,10.17
2023-11-07T17:39:11.748Z,8.75
2023-11-07T17:41:38.218Z,7.50
2023-11-07T17:44:05.007Z,7.00
2023-11-07T17:46:31.427Z,6.67
2023-11-07T17:48:57.973Z,6.00
2023-11-07T17:51:24.510Z,5.67
2023-11-07T17:53:52.025Z,16.67
2023-11-07T17:56:19.527Z,19.00
2023-11-07T17:58:46.063Z,13.00
2023-11-07T18:01:13.050Z,11.00
2023-11-07T18:03:39.555Z,7.50
2023-11-07T18:06:06.991Z,11.33
2023-11-07T18:08:34.398Z,12.00
2023-11-07T18:11:01.957Z,15.00
2023-11-07T18:13:28.480Z,10.50
2023-11-07T18:15:54.952Z,8.00
2023-11-07T18:18:21.471Z,6.33
2023-11-07T18:20:47.953Z,6.33
2023-11-07T18:23:15.505Z,5.00
2023-11-07T18:25:42.037Z,4.67
2023-11-07T18:28:09.875Z,4.67
2023-11-07T18:30:39.112Z,5.00
2023-11-07T18:33:05.716Z,5.00
2023-11-07T18:35:32.318Z,6.00
2023-11-07T18:37:58.990Z,5.00
2023-11-07T18:40:25.614Z,20.00
2023-11-07T18:42:53.007Z,10.67
2023-11-07T18:45:19.657Z,9.00
2023-11-07T18:47:49.157Z,8.00
2023-11-07T18:50:16.509Z,6.00
2023-11-07T18:52:43.869Z,7.25
2023-11-07T18:55:10.688Z,6.00
2023-11-07T18:57:38.106Z,8.00
2023-11-07T19:00:04.619Z,6.00
2023-11-07T19:02:31.957Z,6.00
2023-11-07T19:04:58.392Z,5.33
2023-11-07T19:07:25.168Z,22.00
2023-11-07T19:09:51.786Z,16.00
2023-11-07T19:12:19.226Z,11.67
2023-11-07T19:14:45.737Z,10.00
2023-11-07T19:17:13.107Z,9.33
2023-11-07T19:19:42.364Z,8.50
2023-11-07T19:22:11.636Z,8.00
2023-11-07T19:24:39.029Z,7.00
2023-11-07T19:27:06.413Z,7.00
2023-11-07T19:29:33.741Z,6.00
2023-11-07T19:32:00.183Z,6.00
2023-11-07T19:34:26.798Z,18.00
2023-11-07T19:36:55.512Z,37.00
2023-11-07T19:39:22.244Z,19.50
2023-11-07T19:41:48.818Z,14.50
2023-11-07T19:44:16.273Z,12.00
2023-11-07T19:46:46.314Z,11.29
2023-11-07T19:49:14.809Z,8.00
2023-11-07T19:51:44.147Z,8.33
2023-11-07T19:54:10.785Z,9.00
2023-11-07T19:56:38.382Z,24.33
2023-11-07T19:59:05.337Z,14.00
2023-11-07T20:01:31.846Z,12.00
2023-11-07T20:04:00.476Z,10.40
2023-11-07T20:06:27.135Z,9.50
2023-11-07T20:08:53.653Z,7.50
2023-11-07T20:11:22.018Z,8.60
2023-11-07T20:13:48.591Z,20.00
2023-11-07T20:16:15.175Z,15.00
2023-11-07T20:18:41.977Z,11.00
2023-11-07T20:21:08.700Z,10.00
2023-11-07T20:23:35.246Z,9.00
2023-11-07T20:26:03.622Z,8.00
2023-11-07T20:28:30.142Z,9.00
2023-11-07T20:30:56.669Z,8.50
2023-11-07T20:33:25.142Z,22.00
2023-11-07T20:35:54.761Z,23.00
2023-11-07T20:38:22.229Z,15.00
2023-11-07T20:40:48.746Z,13.00
2023-11-07T20:43:15.244Z,12.00
2023-11-07T20:45:43.686Z,9.00
2023-11-07T20:48:13.128Z,9.00
2023-11-07T20:50:39.743Z,10.00
2023-11-07T20:53:09.795Z,9.57
2023-11-07T20:55:36.306Z,10.00
2023-11-07T20:58:06.275Z,7.80
2023-11-07T21:00:35.110Z,9.60
2023-11-07T21:03:04.554Z,9.00
2023-11-07T21:05:31.157Z,9.50
2023-11-07T21:07:59.547Z,8.60
2023-11-07T21:10:26.138Z,11.50
2023-11-07T21:12:52.667Z,8.50
2023-11-07T21:15:19.253Z,9.00
2023-11-07T21:17:45.794Z,8.50
2023-11-07T21:20:12.319Z,9.00
2023-11-07T21:22:41.653Z,8.83
2023-11-07T21:25:09.041Z,9.00
2023-11-07T21:27:38.361Z,9.33
2023-11-07T21:30:04.989Z,10.00
2023-11-07T21:32:32.424Z,7.00
2023-11-07T21:34:59.006Z,10.00
2023-11-07T21:37:28.247Z,7.33
2023-11-07T21:39:54.748Z,8.50
2023-11-07T21:42:21.220Z,7.00
2023-11-07T21:44:47.707Z,9.00
2023-11-07T21:47:15.997Z,8.00
2023-11-07T21:49:43.433Z,6.00
2023-11-07T21:52:09.942Z,8.00
2023-11-07T21:54:36.489Z,6.33
2023-11-07T21:57:04.883Z,8.00
2023-11-07T21:59:31.388Z,8.00
2023-11-07T22:01:57.824Z,6.50
2023-11-07T22:04:27.090Z,8.83
2023-11-07T22:06:53.681Z,7.00
2023-11-07T22:09:20.253Z,8.00
2023-11-07T22:11:46.822Z,7.50
2023-11-07T22:14:14.192Z,8.00
2023-11-07T22:16:40.757Z,7.00
2023-11-07T22:19:10.041Z,8.33
2023-11-07T22:21:38.523Z,8.20
2023-11-07T22:24:07.025Z,8.00
2023-11-07T22:26:33.541Z,8.50
2023-11-07T22:29:00.133Z,9.00
2023-11-07T22:31:26.703Z,9.00
2023-11-07T22:33:53.526Z,8.00
2023-11-07T22:36:21.042Z,7.75
2023-11-07T22:38:50.325Z,8.83
2023-11-07T22:41:16.784Z,8.00
2023-11-07T22:43:46.070Z,9.00
2023-11-07T22:46:12.595Z,8.50
2023-11-07T22:48:41.938Z,9.00
2023-11-07T22:51:08.530Z,8.50
2023-11-07T22:53:35.058Z,9.00
2023-11-07T22:56:04.415Z,7.67
2023-11-07T22:58:30.917Z,9.50
2023-11-07T23:00:59.279Z,8.60
2023-11-07T23:03:27.626Z,9.00
2023-11-07T23:05:54.277Z,9.00
2023-11-07T23:08:20.909Z,10.00
2023-11-07T23:10:49.270Z,8.00
2023-11-07T23:13:15.767Z,10.50
2023-11-07T23:15:44.110Z,8.80
2023-11-07T23:18:11.641Z,9.00
2023-11-07T23:20:38.301Z,7.00
2023-11-07T23:23:07.558Z,7.50
2023-11-07T23:25:34.052Z,10.00
2023-11-07T23:28:03.311Z,9.00
2023-11-07T23:30:29.911Z,10.00
2023-11-07T23:33:01.006Z,9.80
2023-11-07T23:35:27.863Z,10.00
2023-11-07T23:37:56.213Z,8.40
2023-11-07T23:40:22.753Z,9.00
2023-11-07T23:42:49.288Z,10.00
2023-11-07T23:45:17.628Z,9.20
2023-11-07T23:47:44.136Z,9.00
2023-11-07T23:50:10.606Z,8.00
2023-11-07T23:52:38.948Z,9.00
2023-11-07T23:55:05.456Z,8.00
2023-11-07T23:57:31.969Z,7.00
2023-11-07T23:59:58.530Z,9.00
